createdAt,value
2018-08-06T00:00:33.969Z,52.50
2018-08-06T00:03:03.346Z,53.32
2018-08-06T00:05:32.696Z,52.96
2018-08-06T00:08:02.049Z,53.61
2018-08-06T00:10:31.405Z,53.76
2018-08-06T00:13:00.720Z,54.24
2018-08-06T00:15:29.877Z,54.34
2018-08-06T00:17:59.260Z,53.92
2018-08-06T00:20:28.705Z,54.72
2018-08-06T00:22:58.090Z,54.74
2018-08-06T00:25:27.663Z,55.10
2018-08-06T00:27:57.056Z,54.71
2018-08-06T00:30:26.496Z,54.96
2018-08-06T00:32:55.873Z,54.68
2018-08-06T00:35:25.301Z,55.21
2018-08-06T00:37:54.682Z,55.64
2018-08-06T00:40:24.069Z,55.06
2018-08-06T00:42:53.448Z,55.35
2018-08-06T00:45:22.985Z,55.68
2018-08-06T00:47:52.302Z,56.09
2018-08-06T00:50:21.719Z,56.07
2018-08-06T00:52:51.104Z,57.00
2018-08-06T00:55:20.937Z,57.09
2018-08-06T00:57:50.344Z,57.25
2018-08-06T01:00:20.890Z,57.82
2018-08-06T01:02:50.269Z,57.60
2018-08-06T01:05:19.730Z,57.00
2018-08-06T01:07:49.105Z,55.66
2018-08-06T01:10:19.697Z,56.24
2018-08-06T01:12:49.077Z,56.76
2018-08-06T01:15:19.560Z,57.36
2018-08-06T01:17:48.934Z,57.53
2018-08-06T01:20:18.434Z,57.15
2018-08-06T01:22:47.819Z,57.25
2018-08-06T01:25:17.221Z,58.16
2018-08-06T01:27:46.652Z,58.57
2018-08-06T01:30:21.380Z,58.55
2018-08-06T01:32:50.756Z,58.38
2018-08-06T01:35:20.180Z,57.64
2018-08-06T01:37:49.592Z,58.98
2018-08-06T01:40:19.069Z,59.59
2018-08-06T01:42:48.465Z,59.39
2018-08-06T01:45:17.910Z,59.64
2018-08-06T01:47:47.242Z,60.08
2018-08-06T01:50:16.725Z,60.20
2018-08-06T01:52:46.056Z,60.29
2018-08-06T01:55:15.412Z,59.55
2018-08-06T01:57:44.756Z,60.04
2018-08-06T02:00:15.667Z,60.40
2018-08-06T02:02:45.172Z,60.99
2018-08-06T02:05:14.581Z,59.62
2018-08-06T02:07:43.933Z,60.25
2018-08-06T02:10:14.584Z,59.89
2018-08-06T02:12:44.697Z,59.88
2018-08-06T02:15:14.613Z,59.96
2018-08-06T02:17:43.981Z,60.48
2018-08-06T02:20:15.737Z,61.08
2018-08-06T02:22:46.455Z,60.92
2018-08-06T02:25:15.865Z,60.96
2018-08-06T02:27:45.137Z,60.84
2018-08-06T02:30:15.750Z,58.61
2018-08-06T02:32:45.181Z,59.49
2018-08-06T02:35:15.189Z,60.20
2018-08-06T02:37:44.973Z,60.05
2018-08-06T02:40:18.778Z,59.41
2018-08-06T02:42:48.105Z,59.96
2018-08-06T02:45:17.992Z,60.93
2018-08-06T02:47:47.700Z,60.85
2018-08-06T02:50:17.105Z,59.03
2018-08-06T02:52:46.578Z,59.00
2018-08-06T02:55:16.734Z,60.05
2018-08-06T02:57:46.221Z,60.00
2018-08-06T03:00:17.655Z,61.27
2018-08-06T03:02:47.797Z,61.63
2018-08-06T03:05:19.012Z,62.09
2018-08-06T03:07:48.566Z,62.68
2018-08-06T03:10:17.970Z,62.13
2018-08-06T03:12:47.866Z,61.93
2018-08-06T03:15:17.302Z,62.91
2018-08-06T03:17:46.765Z,62.59
2018-08-06T03:20:16.157Z,63.31
2018-08-06T03:22:45.568Z,63.82
2018-08-06T03:25:16.587Z,64.63
2018-08-06T03:27:46.337Z,63.56
2018-08-06T03:30:17.993Z,63.16
2018-08-06T03:32:48.626Z,62.29
2018-08-06T03:35:18.021Z,62.14
2018-08-06T03:37:47.590Z,62.89
2018-08-06T03:40:17.024Z,63.46
2018-08-06T03:42:46.167Z,63.75
2018-08-06T03:45:15.256Z,63.65
2018-08-06T03:47:44.729Z,63.70
2018-08-06T03:50:14.637Z,63.79
2018-08-06T03:52:44.272Z,64.13
2018-08-06T03:55:13.657Z,64.06
2018-08-06T03:57:43.149Z,65.05
2018-08-06T04:00:15.029Z,65.09
2018-08-06T04:02:44.937Z,65.53
2018-08-06T04:05:15.555Z,66.15
2018-08-06T04:07:45.168Z,65.58
2018-08-06T04:10:16.921Z,65.68
2018-08-06T04:12:46.737Z,64.77
2018-08-06T04:15:16.134Z,64.44
2018-08-06T04:17:45.521Z,64.41
2018-08-06T04:20:15.060Z,64.44
2018-08-06T04:22:44.860Z,63.78
2018-08-06T04:25:14.322Z,63.15
2018-08-06T04:27:43.752Z,61.86
2018-08-06T04:30:15.121Z,62.32
2018-08-06T04:32:45.720Z,61.60
2018-08-06T04:35:15.565Z,62.90
2018-08-06T04:37:45.798Z,61.89
2018-08-06T04:40:15.317Z,62.37
2018-08-06T04:42:44.792Z,61.84
2018-08-06T04:45:14.200Z,61.95
2018-08-06T04:47:43.661Z,60.64
2018-08-06T04:50:14.549Z,61.46
2018-08-06T04:52:45.072Z,61.28
2018-08-06T04:55:15.405Z,62.31
2018-08-06T04:57:44.792Z,62.45
2018-08-06T05:00:15.537Z,62.66
2018-08-06T05:02:45.233Z,61.90
2018-08-06T05:05:14.545Z,62.00
2018-08-06T05:07:43.997Z,61.84
2018-08-06T05:10:13.329Z,61.73
2018-08-06T05:12:42.649Z,61.59
2018-08-06T05:15:12.031Z,61.26
2018-08-06T05:17:41.349Z,61.40
2018-08-06T05:20:10.686Z,61.40
2018-08-06T05:22:39.856Z,61.41
2018-08-06T05:25:09.248Z,60.98
2018-08-06T05:27:38.689Z,61.68
2018-08-06T05:30:10.530Z,61.78
2018-08-06T05:32:39.956Z,62.43
2018-08-06T05:35:09.029Z,61.20
2018-08-06T05:37:38.432Z,60.65
2018-08-06T05:40:09.330Z,60.93
2018-08-06T05:42:38.721Z,59.62
2018-08-06T05:45:09.597Z,59.64
2018-08-06T05:47:39.080Z,60.35
2018-08-06T05:50:11.854Z,60.96
2018-08-06T05:52:41.259Z,59.86
2018-08-06T05:55:11.289Z,60.55
2018-08-06T05:57:41.617Z,60.06
2018-08-06T06:00:15.485Z,59.79
2018-08-06T06:02:45.908Z,59.63
2018-08-06T06:05:15.314Z,59.32
2018-08-06T06:07:44.415Z,58.44
2018-08-06T06:10:15.085Z,58.57
2018-08-06T06:12:44.398Z,59.34
2018-08-06T06:15:15.826Z,57.33
2018-08-06T06:17:45.345Z,58.17
2018-08-06T06:20:14.768Z,57.87
2018-08-06T06:22:44.113Z,57.34
2018-08-06T06:25:14.050Z,56.70
2018-08-06T06:27:43.784Z,55.86
2018-08-06T06:30:16.026Z,56.35
2018-08-06T06:32:45.481Z,55.75
2018-08-06T06:35:14.863Z,55.31
2018-08-06T06:37:44.552Z,55.83
2018-08-06T06:40:14.184Z,55.59
2018-08-06T06:42:43.605Z,55.66
2018-08-06T06:45:12.762Z,55.48
2018-08-06T06:47:42.093Z,55.50
2018-08-06T06:50:11.296Z,55.32
2018-08-06T06:52:40.381Z,54.78
2018-08-06T06:55:12.353Z,53.94
2018-08-06T06:57:42.230Z,54.51
2018-08-06T07:00:12.049Z,55.82
2018-08-06T07:02:42.294Z,54.12
2018-08-06T07:05:11.740Z,54.98
2018-08-06T07:07:41.069Z,54.52
2018-08-06T07:10:12.034Z,53.49
2018-08-06T07:12:41.430Z,54.59
2018-08-06T07:15:14.841Z,53.26
2018-08-06T07:17:46.092Z,53.43
2018-08-06T07:20:16.489Z,54.84
2018-08-06T07:22:45.834Z,54.31
2018-08-06T07:25:15.230Z,53.79
2018-08-06T07:27:44.785Z,52.84
2018-08-06T07:30:15.716Z,52.30
2018-08-06T07:32:45.407Z,52.89
2018-08-06T07:35:15.258Z,53.07
2018-08-06T07:37:44.624Z,52.47
2018-08-06T07:40:15.228Z,53.16
2018-08-06T07:42:44.465Z,52.49
2018-08-06T07:45:19.209Z,52.20
2018-08-06T07:47:49.646Z,52.04
2018-08-06T07:50:20.647Z,52.27
2018-08-06T07:52:49.997Z,52.70
2018-08-06T07:55:19.424Z,51.84
2018-08-06T07:57:48.758Z,51.12
2018-08-06T08:00:20.188Z,50.91
2018-08-06T08:02:49.528Z,50.46
2018-08-06T08:05:19.657Z,50.23
2018-08-06T08:07:49.563Z,49.65
2018-08-06T08:10:20.714Z,48.73
2018-08-06T08:12:50.081Z,48.75
2018-08-06T08:15:25.254Z,47.80
2018-08-06T08:17:56.230Z,48.01
2018-08-06T08:20:25.661Z,47.08
2018-08-06T08:22:55.025Z,47.10
2018-08-06T08:25:24.279Z,47.81
2018-08-06T08:27:53.631Z,47.12
2018-08-06T08:30:23.037Z,46.64
2018-08-06T08:32:52.389Z,46.89
2018-08-06T08:35:25.428Z,46.46
2018-08-06T08:37:54.777Z,46.10
2018-08-06T08:40:24.245Z,46.31
2018-08-06T08:42:53.601Z,46.87
2018-08-06T08:45:23.027Z,45.52
2018-08-06T08:47:52.358Z,45.21
2018-08-06T08:50:21.718Z,44.35
2018-08-06T08:52:51.069Z,44.97
2018-08-06T08:55:21.105Z,44.53
2018-08-06T08:57:50.453Z,44.65
2018-08-06T09:00:21.986Z,45.53
2018-08-06T09:02:52.294Z,45.39
2018-08-06T09:05:22.003Z,44.24
2018-08-06T09:07:52.773Z,42.28
2018-08-06T09:10:22.343Z,43.89
2018-08-06T09:12:51.669Z,43.28
2018-08-06T09:15:24.534Z,42.88
2018-08-06T09:17:53.930Z,43.05
2018-08-06T09:20:24.598Z,42.64
2018-08-06T09:22:53.677Z,41.18
2018-08-06T09:25:23.068Z,42.49
2018-08-06T09:27:52.682Z,42.44
2018-08-06T09:30:23.286Z,42.28
2018-08-06T09:32:57.813Z,42.50
2018-08-06T09:35:27.173Z,42.21
2018-08-06T09:37:56.560Z,41.50
2018-08-06T09:40:25.911Z,41.52
2018-08-06T09:42:55.285Z,40.92
2018-08-06T09:45:24.704Z,40.48
2018-08-06T09:47:55.461Z,40.30
2018-08-06T09:50:24.869Z,40.00
2018-08-06T09:52:54.940Z,39.39
2018-08-06T09:55:27.862Z,39.63
2018-08-06T09:57:57.394Z,39.22
2018-08-06T10:00:33.222Z,40.00
2018-08-06T10:03:03.250Z,39.57
2018-08-06T10:05:32.765Z,38.57
2018-08-06T10:08:02.156Z,38.61
2018-08-06T10:10:31.657Z,38.44
2018-08-06T10:13:01.057Z,39.12
2018-08-06T10:15:30.567Z,38.15
2018-08-06T10:17:59.979Z,37.28
2018-08-06T10:20:29.470Z,37.91
2018-08-06T10:22:58.847Z,38.23
2018-08-06T10:25:28.266Z,37.95
2018-08-06T10:27:57.700Z,39.52
2018-08-06T10:30:27.254Z,38.18
2018-08-06T10:32:56.581Z,38.24
2018-08-06T10:35:26.129Z,38.26
2018-08-06T10:37:55.524Z,37.92
2018-08-06T10:40:25.238Z,38.09
2018-08-06T10:42:54.661Z,38.03
2018-08-06T10:45:25.861Z,37.31
2018-08-06T10:47:55.569Z,36.83
2018-08-06T10:50:25.019Z,36.88
2018-08-06T10:52:54.075Z,34.82
2018-08-06T10:55:23.512Z,34.70
2018-08-06T10:57:52.833Z,35.06
2018-08-06T11:00:23.404Z,34.55
2018-08-06T11:02:52.897Z,34.53
2018-08-06T11:05:22.376Z,35.32
2018-08-06T11:07:51.718Z,35.20
2018-08-06T11:10:22.550Z,35.30
2018-08-06T11:12:51.981Z,34.88
2018-08-06T11:15:22.408Z,34.21
2018-08-06T11:17:51.572Z,32.36
2018-08-06T11:20:21.651Z,31.97
2018-08-06T11:22:51.152Z,32.79
2018-08-06T11:25:22.148Z,31.23
2018-08-06T11:27:51.575Z,31.13
2018-08-06T11:30:21.775Z,31.80
2018-08-06T11:32:51.777Z,30.18
2018-08-06T11:35:21.114Z,31.42
2018-08-06T11:37:50.504Z,30.43
2018-08-06T11:40:19.848Z,31.25
2018-08-06T11:42:49.592Z,30.48
2018-08-06T11:45:20.204Z,29.23
2018-08-06T11:47:49.747Z,29.71
2018-08-06T11:50:19.124Z,29.49
2018-08-06T11:52:48.601Z,28.88
2018-08-06T11:55:17.993Z,30.65
2018-08-06T11:57:47.429Z,29.05
2018-08-06T12:00:20.510Z,29.85
2018-08-06T12:02:49.974Z,28.83
2018-08-06T12:05:19.105Z,27.90
2018-08-06T12:07:48.516Z,27.65
2018-08-06T12:10:18.971Z,28.05
2018-08-06T12:12:49.186Z,27.16
2018-08-06T12:15:18.637Z,27.35
2018-08-06T12:17:47.999Z,26.41
2018-08-06T12:20:19.017Z,28.99
2018-08-06T12:22:49.881Z,27.62
2018-08-06T12:25:19.669Z,28.39
2018-08-06T12:27:49.801Z,27.25
2018-08-06T12:30:20.729Z,27.50
2018-08-06T12:32:51.078Z,27.08
2018-08-06T12:35:20.549Z,27.92
2018-08-06T12:37:50.129Z,27.13
2018-08-06T12:40:20.688Z,26.63
2018-08-06T12:42:50.214Z,27.97
2018-08-06T12:45:19.578Z,26.15
2018-08-06T12:47:48.933Z,24.53
2018-08-06T12:50:18.710Z,24.84
2018-08-06T12:52:48.151Z,25.25
2018-08-06T12:55:18.575Z,25.23
2018-08-06T12:57:47.960Z,23.63
2018-08-06T13:00:26.261Z,23.87
2018-08-06T13:02:55.983Z,24.43
2018-08-06T13:05:25.751Z,24.42
2018-08-06T13:07:55.160Z,24.03
2018-08-06T13:10:24.532Z,25.07
2018-08-06T13:12:53.610Z,23.70
2018-08-06T13:15:22.985Z,23.40
2018-08-06T13:17:52.386Z,23.06
2018-08-06T13:20:21.761Z,23.07
2018-08-06T13:22:51.367Z,23.87
2018-08-06T13:25:20.765Z,22.90
2018-08-06T13:27:50.076Z,22.79
2018-08-06T13:30:19.404Z,23.04
2018-08-06T13:32:48.757Z,22.49
2018-08-06T13:35:18.149Z,22.93
2018-08-06T13:37:47.281Z,21.71
2018-08-06T13:40:16.636Z,22.22
2018-08-06T13:42:45.953Z,21.58
2018-08-06T13:45:15.119Z,22.12
2018-08-06T13:47:44.605Z,22.26
2018-08-06T13:50:14.180Z,22.33
2018-08-06T13:52:43.560Z,22.80
2018-08-06T13:55:13.244Z,23.30
2018-08-06T13:57:43.124Z,23.56
2018-08-06T14:00:18.136Z,22.61
2018-08-06T14:02:47.673Z,22.21
2018-08-06T14:05:18.143Z,21.40
2018-08-06T14:07:48.637Z,21.70
2018-08-06T14:10:18.445Z,20.64
2018-08-06T14:12:47.870Z,20.69
2018-08-06T14:15:17.364Z,20.13
2018-08-06T14:17:46.769Z,20.96
2018-08-06T14:20:17.877Z,21.53
2018-08-06T14:22:47.257Z,24.22
2018-08-06T14:25:16.786Z,23.77
2018-08-06T14:27:46.173Z,24.04
2018-08-06T14:30:16.736Z,21.54
2018-08-06T14:32:46.387Z,21.65
2018-08-06T14:35:16.296Z,21.35
2018-08-06T14:37:45.697Z,22.81
2018-08-06T14:40:17.261Z,21.47
2018-08-06T14:42:46.640Z,21.94
2018-08-06T14:45:16.208Z,19.98
2018-08-06T14:47:45.592Z,21.70
2018-08-06T14:50:15.684Z,21.00
2018-08-06T14:52:45.136Z,20.82
2018-08-06T14:55:14.540Z,20.75
2018-08-06T14:57:43.931Z,20.54
2018-08-06T15:00:17.260Z,20.55
2018-08-06T15:02:47.162Z,20.46
2018-08-06T15:05:16.722Z,19.76
2018-08-06T15:07:46.080Z,20.56
2018-08-06T15:10:16.083Z,19.96
2018-08-06T15:12:45.806Z,21.24
2018-08-06T15:15:16.489Z,20.42
2018-08-06T15:17:46.468Z,21.31
2018-08-06T15:20:17.285Z,20.11
2018-08-06T15:22:46.858Z,19.68
2018-08-06T15:25:21.471Z,19.51
2018-08-06T15:27:51.441Z,20.49
2018-08-06T15:30:21.007Z,19.71
2018-08-06T15:32:50.419Z,20.08
2018-08-06T15:35:19.838Z,20.83
2018-08-06T15:37:49.219Z,21.38
2018-08-06T15:40:20.645Z,19.28
2018-08-06T15:42:49.769Z,20.17
2018-08-06T15:45:19.234Z,20.37
2018-08-06T15:47:48.680Z,20.26
2018-08-06T15:50:20.316Z,20.95
2018-08-06T15:52:49.812Z,21.29
2018-08-06T15:55:19.234Z,22.83
2018-08-06T15:57:48.538Z,21.24
2018-08-06T16:00:19.010Z,21.08
2018-08-06T16:02:48.699Z,21.57
2018-08-06T16:05:18.159Z,21.92
2018-08-06T16:07:47.420Z,20.84
2018-08-06T16:10:17.221Z,20.51
2018-08-06T16:12:46.584Z,20.04
2018-08-06T16:15:16.550Z,21.12
2018-08-06T16:17:46.131Z,21.24
2018-08-06T16:20:16.957Z,21.72
2018-08-06T16:22:46.353Z,20.05
2018-08-06T16:25:16.007Z,19.91
2018-08-06T16:27:45.338Z,21.40
2018-08-06T16:30:19.707Z,19.96
2018-08-06T16:32:49.625Z,20.21
2018-08-06T16:35:21.125Z,20.44
2018-08-06T16:37:51.946Z,20.08
2018-08-06T16:40:21.378Z,21.74
2018-08-06T16:42:51.177Z,20.71
2018-08-06T16:45:20.644Z,20.22
2018-08-06T16:47:50.245Z,20.56
2018-08-06T16:50:19.971Z,20.51
2018-08-06T16:52:49.611Z,20.60
2018-08-06T16:55:18.845Z,20.25
2018-08-06T16:57:48.332Z,20.97
2018-08-06T17:00:19.552Z,19.89
2018-08-06T17:02:50.007Z,20.68
2018-08-06T17:05:19.409Z,20.18
2018-08-06T17:07:49.549Z,20.86
2018-08-06T17:10:20.801Z,21.29
2018-08-06T17:12:53.072Z,21.59
2018-08-06T17:15:22.864Z,22.78
2018-08-06T17:17:54.510Z,22.25
2018-08-06T17:20:24.653Z,22.10
2018-08-06T17:22:54.286Z,22.19
2018-08-06T17:25:23.693Z,22.36
2018-08-06T17:27:53.173Z,22.96
2018-08-06T17:30:22.641Z,23.46
2018-08-06T17:32:52.081Z,23.95
2018-08-06T17:35:21.480Z,23.19
2018-08-06T17:37:50.908Z,23.86
2018-08-06T17:40:20.382Z,24.20
2018-08-06T17:42:49.904Z,26.27
2018-08-06T17:45:20.878Z,26.85
2018-08-06T17:47:50.288Z,27.24
2018-08-06T17:50:21.325Z,27.54
2018-08-06T17:52:51.630Z,27.94
2018-08-06T17:55:21.934Z,28.34
2018-08-06T17:57:51.458Z,29.12
2018-08-06T18:00:21.354Z,28.48
2018-08-06T18:02:50.821Z,29.63
2018-08-06T18:05:20.278Z,30.50
2018-08-06T18:07:49.700Z,30.08
2018-08-06T18:10:19.102Z,30.42
2018-08-06T18:12:48.769Z,30.26
2018-08-06T18:15:18.304Z,30.71
2018-08-06T18:17:47.696Z,31.59
2018-08-06T18:20:18.747Z,31.40
2018-08-06T18:22:48.342Z,30.82
2018-08-06T18:25:19.190Z,30.91
2018-08-06T18:27:49.497Z,31.54
2018-08-06T18:30:21.343Z,31.70
2018-08-06T18:32:50.989Z,32.06
2018-08-06T18:35:20.890Z,32.15
2018-08-06T18:37:50.313Z,32.33
2018-08-06T18:40:21.037Z,31.95
2018-08-06T18:42:50.466Z,32.79
2018-08-06T18:45:21.046Z,32.94
2018-08-06T18:47:51.161Z,33.12
2018-08-06T18:50:20.886Z,32.65
2018-08-06T18:52:50.690Z,33.56
2018-08-06T18:55:20.194Z,33.22
2018-08-06T18:57:49.690Z,33.80
2018-08-06T19:00:22.732Z,33.84
2018-08-06T19:02:52.120Z,33.95
2018-08-06T19:05:21.495Z,34.16
2018-08-06T19:07:50.981Z,34.14
2018-08-06T19:10:20.327Z,34.23
2018-08-06T19:13:54.635Z,34.04
2018-08-06T19:16:23.991Z,34.54
2018-08-06T19:18:58.950Z,34.26
2018-08-06T19:21:28.289Z,34.69
2018-08-06T19:24:02.837Z,34.10
2018-08-06T19:26:32.193Z,34.64
2018-08-06T19:29:01.721Z,34.78
2018-08-06T19:31:30.818Z,34.56
2018-08-06T19:34:00.201Z,34.93
2018-08-06T19:36:33.606Z,35.21
2018-08-06T19:39:02.922Z,34.41
2018-08-06T19:41:32.145Z,35.10
2018-08-06T19:44:01.488Z,35.78
2018-08-06T19:46:30.926Z,35.64
2018-08-06T19:49:00.022Z,35.92
2018-08-06T19:51:29.226Z,35.98
2018-08-06T19:53:58.316Z,35.42
2018-08-06T19:56:27.649Z,35.06
2018-08-06T19:58:57.024Z,35.70
2018-08-06T20:01:26.113Z,35.66
2018-08-06T20:03:55.485Z,35.40
2018-08-06T20:06:24.833Z,35.52
2018-08-06T20:08:54.229Z,36.05
2018-08-06T20:11:23.354Z,36.12
2018-08-06T20:13:52.738Z,36.18
2018-08-06T20:16:22.130Z,36.06
2018-08-06T20:18:51.209Z,35.60
2018-08-06T20:21:20.294Z,36.58
2018-08-06T20:23:49.672Z,36.16
2018-08-06T20:26:19.051Z,36.56
2018-08-06T20:28:48.436Z,36.02
2018-08-06T20:31:17.834Z,35.93
2018-08-06T20:33:47.229Z,37.04
2018-08-06T20:36:16.288Z,35.84
2018-08-06T20:38:45.718Z,37.25
2018-08-06T20:41:14.797Z,36.48
2018-08-06T20:43:44.233Z,39.29
2018-08-06T20:46:13.581Z,40.19
2018-08-06T20:48:42.984Z,40.32
2018-08-06T20:51:12.312Z,38.41
2018-08-06T20:53:41.645Z,37.68
2018-08-06T20:56:10.986Z,37.61
2018-08-06T20:58:40.425Z,37.48
2018-08-06T21:01:09.531Z,38.80
2018-08-06T21:03:38.676Z,40.51
2018-08-06T21:06:08.032Z,40.87
2018-08-06T21:08:37.406Z,42.29
2018-08-06T21:11:07.139Z,41.27
2018-08-06T21:13:36.457Z,42.31
2018-08-06T21:16:05.814Z,40.62
2018-08-06T21:18:35.215Z,40.54
2018-08-06T21:21:04.560Z,41.00
2018-08-06T21:23:33.954Z,41.08
2018-08-06T21:26:03.292Z,41.39
2018-08-06T21:28:32.628Z,40.20
2018-08-06T21:31:01.949Z,40.92
2018-08-06T21:33:31.104Z,40.75
2018-08-06T21:36:00.454Z,40.33
2018-08-06T21:38:29.784Z,41.24
2018-08-06T21:40:59.180Z,41.17
2018-08-06T21:43:28.532Z,41.59
2018-08-06T21:45:57.906Z,41.56
2018-08-06T21:48:27.391Z,42.09
2018-08-06T21:50:56.785Z,42.48
2018-08-06T21:53:26.208Z,42.50
2018-08-06T21:55:55.643Z,42.92
2018-08-06T21:58:25.012Z,43.01
2018-08-06T22:00:54.397Z,43.48
2018-08-06T22:03:23.819Z,43.03
2018-08-06T22:05:53.218Z,44.31
2018-08-06T22:08:23.664Z,43.85
2018-08-06T22:10:53.045Z,44.35
2018-08-06T22:13:22.455Z,44.71
2018-08-06T22:15:53.201Z,43.22
2018-08-06T22:18:22.580Z,43.42
2018-08-06T22:20:52.048Z,43.48
2018-08-06T22:23:21.324Z,43.28
2018-08-06T22:25:51.168Z,43.95
2018-08-06T22:28:20.559Z,43.70
2018-08-06T22:30:49.896Z,43.67
2018-08-06T22:33:20.114Z,43.53
2018-08-06T22:35:49.598Z,43.89
2018-08-06T22:38:19.719Z,44.62
2018-08-06T22:40:52.455Z,44.97
2018-08-06T22:43:22.209Z,45.42
2018-08-06T22:45:56.991Z,44.98
2018-08-06T22:48:27.845Z,45.51
2018-08-06T22:50:59.747Z,46.24
2018-08-06T22:53:32.134Z,46.86
2018-08-06T22:56:09.890Z,46.71
2018-08-06T22:58:42.861Z,47.64
2018-08-06T23:01:15.627Z,47.31
2018-08-06T23:03:47.936Z,47.52
2018-08-06T23:06:19.921Z,48.15
2018-08-06T23:08:51.553Z,48.79
2018-08-06T23:11:23.699Z,48.57
2018-08-06T23:13:55.369Z,48.85
2018-08-06T23:16:27.013Z,48.58
2018-08-06T23:18:58.551Z,49.57
2018-08-06T23:21:31.745Z,49.96
2018-08-06T23:24:05.988Z,50.03
2018-08-06T23:26:39.903Z,50.36
2018-08-06T23:29:13.723Z,50.50
2018-08-06T23:31:45.953Z,49.88
2018-08-06T23:34:15.224Z,50.13
2018-08-06T23:36:44.649Z,49.76
2018-08-06T23:39:14.148Z,50.26
2018-08-06T23:41:43.553Z,50.89
2018-08-06T23:44:13.057Z,49.77
2018-08-06T23:46:42.405Z,48.59
2018-08-06T23:49:11.797Z,51.71
2018-08-06T23:51:40.876Z,49.83
2018-08-06T23:54:10.337Z,50.16
2018-08-06T23:56:39.705Z,49.93
2018-08-06T23:59:09.113Z,50.83
